Time;durP1;ratioP1;P1;durP2;ratioP2;P2;SDS_P1;SDS_P2;PMS_P1;PMS_P2;Temp;Humidity;BMP_temperature;BMP_pressure;BME280_temperature;BME280_humidity;BME280_pressure;Samples;Min_cycle;Max_cycle;Signal;HPM_P1;HPM_P2
2021/11/19 00:03:48;;;;;;;14.25;5.80;;;;;;;;;;10500204;28;20028;-74
2021/11/19 00:08:50;;;;;;;13.47;5.47;;;;;;;;;;10481585;28;20055;-74
2021/11/19 00:13:50;;;;;;;10.63;4.80;;;;;;;;;;10482198;28;20277;-74
2021/11/19 00:18:51;;;;;;;19.02;4.88;;;;;;;;;;10498914;28;20649;-74
2021/11/19 00:23:51;;;;;;;19.85;6.05;;;;;;;;;;10499441;28;20477;-74
2021/11/19 00:28:52;;;;;;;8.13;5.25;;;;;;;;;;10480138;28;20070;-73
2021/11/19 00:33:55;;;;;;;18.17;4.47;;;;;;;;;;10476243;28;20131;-74
2021/11/19 00:38:56;;;;;;;8.90;6.15;;;;;;;;;;10498202;28;20033;-74
2021/11/19 00:43:56;;;;;;;8.15;4.50;;;;;;;;;;10480275;28;20113;-74
2021/11/19 00:48:56;;;;;;;4.95;4.55;;;;;;;;;;10480346;28;20070;-74
2021/11/19 00:53:57;;;;;;;12.65;5.80;;;;;;;;;;10479956;28;20484;-74
2021/11/19 00:58:58;;;;;;;9.43;5.35;;;;;;;;;;10497362;28;20039;-74
2021/11/19 01:03:58;;;;;;;13.27;5.83;;;;;;;;;;10497707;28;20387;-74
2021/11/19 01:08:59;;;;;;;8.77;5.90;;;;;;;;;;10497206;28;20376;-74
2021/11/19 01:13:59;;;;;;;4.93;4.53;;;;;;;;;;10498110;28;20418;-74
2021/11/19 01:19:04;;;;;;;9.18;5.25;;;;;;;;;;10479198;28;20033;-74
2021/11/19 01:24:04;;;;;;;9.95;6.35;;;;;;;;;;10479492;28;20390;-74
2021/11/19 01:29:06;;;;;;;7.00;5.60;;;;;;;;;;10496621;28;20119;-74
2021/11/19 01:34:06;;;;;;;12.55;4.97;;;;;;;;;;10479302;28;20272;-74
2021/11/19 01:39:08;;;;;;;9.05;5.53;;;;;;;;;;10496927;28;20458;-74
2021/11/19 01:44:13;;;;;;;5.05;4.57;;;;;;;;;;10497444;28;20025;-74
2021/11/19 01:49:13;;;;;;;6.57;5.28;;;;;;;;;;10507800;28;20076;-74
2021/11/19 01:54:16;;;;;;;9.40;5.60;;;;;;;;;;10505585;28;20033;-74
2021/11/19 01:59:29;;;;;;;5.97;5.47;;;;;;;;;;10485988;28;20028;-74
2021/11/19 02:04:31;;;;;;;14.57;5.65;;;;;;;;;;10486754;28;20031;-74
2021/11/19 02:09:40;;;;;;;16.55;6.30;;;;;;;;;;10504029;28;20397;-74
2021/11/19 02:14:47;;;;;;;10.63;6.15;;;;;;;;;;10504079;28;20025;-74
2021/11/19 02:19:49;;;;;;;7.72;6.82;;;;;;;;;;10503571;28;20111;-74
2021/11/19 02:24:54;;;;;;;15.95;5.68;;;;;;;;;;10503808;28;20033;-68
2021/11/19 02:29:56;;;;;;;21.25;6.45;;;;;;;;;;10504968;28;20150;-69
2021/11/19 02:34:56;;;;;;;11.10;5.85;;;;;;;;;;10504799;28;20035;-69
2021/11/19 02:39:58;;;;;;;14.00;6.03;;;;;;;;;;10506516;28;20552;-68
2021/11/19 02:44:59;;;;;;;6.55;5.57;;;;;;;;;;10504259;28;20336;-69
2021/11/19 02:49:59;;;;;;;12.15;6.10;;;;;;;;;;10504257;28;20053;-68
2021/11/19 02:55:00;;;;;;;9.30;6.60;;;;;;;;;;10502260;28;20123;-68
2021/11/19 03:00:00;;;;;;;17.08;6.55;;;;;;;;;;10501966;28;20319;-69
2021/11/19 03:05:01;;;;;;;13.20;7.72;;;;;;;;;;10502831;28;20109;-68
2021/11/19 03:10:07;;;;;;;11.13;5.65;;;;;;;;;;10502114;28;20056;-68
2021/11/19 03:15:12;;;;;;;13.57;7.25;;;;;;;;;;10483556;28;20093;-69
2021/11/19 03:20:13;;;;;;;16.92;7.47;;;;;;;;;;10502544;28;20028;-69
2021/11/19 03:25:14;;;;;;;10.68;7.80;;;;;;;;;;10501207;28;20385;-68
2021/11/19 03:30:15;;;;;;;10.05;6.75;;;;;;;;;;10484006;28;20065;-67
2021/11/19 03:35:15;;;;;;;9.98;5.95;;;;;;;;;;10485228;28;20024;-68
2021/11/19 03:40:17;;;;;;;30.27;7.53;;;;;;;;;;10503415;28;20116;-68
2021/11/19 03:45:18;;;;;;;11.68;7.13;;;;;;;;;;10502595;28;20085;-67
2021/11/19 03:50:21;;;;;;;14.60;6.97;;;;;;;;;;10500739;28;20033;-67
2021/11/19 03:55:28;;;;;;;15.18;6.88;;;;;;;;;;10467080;28;20023;-68
2021/11/19 04:00:48;;;;;;;13.70;7.20;;;;;;;;;;10482870;28;20509;-68
2021/11/19 04:05:48;;;;;;;16.17;6.70;;;;;;;;;;10482966;28;20056;-68
2021/11/19 04:10:48;;;;;;;11.82;6.47;;;;;;;;;;10503507;28;20032;-68
2021/11/19 04:15:50;;;;;;;13.70;7.20;;;;;;;;;;10500683;28;20028;-68
2021/11/19 04:20:50;;;;;;;15.73;7.78;;;;;;;;;;10499997;28;20082;-68
2021/11/19 04:25:52;;;;;;;12.70;6.17;;;;;;;;;;10498743;28;20048;-67
2021/11/19 04:30:52;;;;;;;13.40;6.05;;;;;;;;;;10481160;28;20257;-69
2021/11/19 04:35:53;;;;;;;17.48;7.38;;;;;;;;;;10480441;28;20036;-68
2021/11/19 04:40:53;;;;;;;9.30;6.55;;;;;;;;;;10480890;28;20036;-69
2021/11/19 04:45:54;;;;;;;18.02;6.40;;;;;;;;;;10499014;28;20116;-68
2021/11/19 04:50:54;;;;;;;10.32;6.50;;;;;;;;;;10481234;28;20440;-67
2021/11/19 04:55:54;;;;;;;21.10;6.40;;;;;;;;;;10497768;28;20515;-69
2021/11/19 05:01:04;;;;;;;25.38;6.60;;;;;;;;;;10498722;28;20504;-68
2021/11/19 05:06:05;;;;;;;9.10;4.90;;;;;;;;;;10497800;28;20600;-68
2021/11/19 05:11:05;;;;;;;8.65;7.00;;;;;;;;;;10498478;28;20020;-68
2021/11/19 05:16:07;;;;;;;5.70;4.32;;;;;;;;;;10497798;28;20423;-69
2021/11/19 05:21:07;;;;;;;12.75;5.97;;;;;;;;;;10498075;28;20024;-69
2021/11/19 05:26:08;;;;;;;16.25;5.40;;;;;;;;;;10498768;28;20032;-68
2021/11/19 05:31:08;;;;;;;12.25;5.10;;;;;;;;;;10498470;28;20020;-68
2021/11/19 05:36:08;;;;;;;7.00;4.72;;;;;;;;;;10478806;28;20461;-68
2021/11/19 05:41:09;;;;;;;9.43;5.33;;;;;;;;;;10479368;28;20111;-68
2021/11/19 05:46:10;;;;;;;10.90;6.07;;;;;;;;;;10499523;28;20262;-68
2021/11/19 05:51:11;;;;;;;7.80;4.50;;;;;;;;;;10480045;28;20139;-71
2021/11/19 05:56:11;;;;;;;10.75;5.78;;;;;;;;;;10481198;28;20111;-71
2021/11/19 06:01:13;;;;;;;12.98;5.15;;;;;;;;;;10479356;28;20078;-70
2021/11/19 06:06:13;;;;;;;8.02;4.35;;;;;;;;;;10495880;28;20052;-70
2021/11/19 06:11:15;;;;;;;4.55;3.85;;;;;;;;;;10478630;28;20029;-70
2021/11/19 06:16:18;;;;;;;10.90;5.30;;;;;;;;;;10496430;28;20612;-68
2021/11/19 06:21:25;;;;;;;7.05;5.22;;;;;;;;;;10496311;28;20449;-67
2021/11/19 06:26:25;;;;;;;5.18;4.72;;;;;;;;;;10495751;28;20094;-68
2021/11/19 06:31:26;;;;;;;13.43;5.85;;;;;;;;;;10462112;28;20095;-68
2021/11/19 06:36:26;;;;;;;8.75;5.03;;;;;;;;;;10504428;28;20037;-67
2021/11/19 06:41:27;;;;;;;8.60;4.75;;;;;;;;;;10469181;28;20354;-68
2021/11/19 06:46:27;;;;;;;6.85;3.65;;;;;;;;;;10503698;28;20119;-68
2021/11/19 06:51:27;;;;;;;11.32;3.20;;;;;;;;;;10484988;28;20367;-68
2021/11/19 06:56:27;;;;;;;4.65;3.53;;;;;;;;;;10484678;28;20028;-68
2021/11/19 07:01:28;;;;;;;9.43;3.33;;;;;;;;;;10502362;28;20115;-68
2021/11/19 07:06:30;;;;;;;15.05;4.38;;;;;;;;;;10502356;28;20056;-69
2021/11/19 07:11:30;;;;;;;10.18;3.72;;;;;;;;;;10502293;28;20035;-68
2021/11/19 07:16:30;;;;;;;5.35;3.35;;;;;;;;;;10502464;28;20394;-67
2021/11/19 07:21:30;;;;;;;13.55;4.72;;;;;;;;;;10484075;28;20028;-67
2021/11/19 07:26:31;;;;;;;14.30;3.95;;;;;;;;;;10501099;28;20371;-68
2021/11/19 07:31:31;;;;;;;6.22;4.18;;;;;;;;;;10466439;28;20086;-68
2021/11/19 07:36:32;;;;;;;15.23;3.55;;;;;;;;;;10501923;28;20115;-68
2021/11/19 07:41:32;;;;;;;11.03;4.13;;;;;;;;;;10483050;28;20020;-68
2021/11/19 07:46:32;;;;;;;5.38;3.58;;;;;;;;;;10500971;28;20272;-68
2021/11/19 07:51:34;;;;;;;14.82;3.47;;;;;;;;;;10500487;28;20020;-68
2021/11/19 07:56:35;;;;;;;7.22;3.88;;;;;;;;;;10501282;28;20354;-67
2021/11/19 08:01:35;;;;;;;10.05;3.75;;;;;;;;;;10500940;28;20119;-68
2021/11/19 08:06:35;;;;;;;6.72;3.70;;;;;;;;;;10500405;28;20062;-67
2021/11/19 08:11:35;;;;;;;8.10;3.95;;;;;;;;;;10502578;28;20051;-69
2021/11/19 08:16:47;;;;;;;5.50;3.40;;;;;;;;;;10503426;28;20036;-68
2021/11/19 08:21:47;;;;;;;7.70;3.38;;;;;;;;;;10500191;28;20023;-68
2021/11/19 08:26:48;;;;;;;3.88;3.10;;;;;;;;;;10499724;28;20031;-68
2021/11/19 08:31:49;;;;;;;6.70;3.92;;;;;;;;;;10499435;28;20031;-68
2021/11/19 08:36:49;;;;;;;18.40;4.07;;;;;;;;;;10498126;28;20033;-68
2021/11/19 08:41:49;;;;;;;4.55;2.80;;;;;;;;;;10480676;28;20033;-68
2021/11/19 08:46:50;;;;;;;3.33;2.85;;;;;;;;;;10480273;28;20492;-68
2021/11/19 08:51:50;;;;;;;10.82;3.22;;;;;;;;;;10481012;28;20347;-70
2021/11/19 08:56:52;;;;;;;4.28;2.70;;;;;;;;;;10496928;28;20434;-68
2021/11/19 09:01:54;;;;;;;7.03;3.55;;;;;;;;;;10479974;28;20034;-68
2021/11/19 09:06:55;;;;;;;8.57;3.88;;;;;;;;;;10500719;28;20049;-67
2021/11/19 09:11:55;;;;;;;6.90;3.45;;;;;;;;;;10478838;28;20090;-68
2021/11/19 09:17:00;;;;;;;7.18;3.22;;;;;;;;;;10497056;28;20033;-68
2021/11/19 09:22:21;;;;;;;5.32;2.85;;;;;;;;;;10497870;28;20024;-68
2021/11/19 09:27:21;;;;;;;2.92;2.33;;;;;;;;;;10479233;28;20032;-69
2021/11/19 09:32:22;;;;;;;5.55;1.83;;;;;;;;;;10497619;28;20024;-68
2021/11/19 09:37:24;;;;;;;9.15;3.15;;;;;;;;;;10479427;28;20032;-68
2021/11/19 09:42:40;;;;;;;12.90;3.00;;;;;;;;;;10463010;28;20024;-69
2021/11/19 09:47:52;;;;;;;5.93;3.08;;;;;;;;;;10497268;28;20021;-68
2021/11/19 09:52:58;;;;;;;6.90;2.58;;;;;;;;;;10497513;28;20097;-68
2021/11/19 09:58:17;;;;;;;5.33;3.00;;;;;;;;;;10496444;28;20083;-68
2021/11/19 10:03:21;;;;;;;3.00;2.25;;;;;;;;;;10496018;28;20012;-70
2021/11/19 10:08:39;;;;;;;7.25;3.67;;;;;;;;;;10502204;28;20135;-68
2021/11/19 10:13:42;;;;;;;4.05;3.10;;;;;;;;;;10505594;28;20036;-68
2021/11/19 10:18:48;;;;;;;4.43;3.20;;;;;;;;;;10486313;28;20097;-68
2021/11/19 10:23:51;;;;;;;1.95;1.80;;;;;;;;;;10504381;28;20056;-67
2021/11/19 10:29:04;;;;;;;9.40;3.67;;;;;;;;;;10507126;28;20032;-68
2021/11/19 10:34:23;;;;;;;8.95;2.45;;;;;;;;;;10488928;28;20458;-68
2021/11/19 10:39:42;;;;;;;10.15;3.78;;;;;;;;;;10503538;28;20039;-69
2021/11/19 10:44:48;;;;;;;6.22;2.90;;;;;;;;;;10503617;28;20046;-69
2021/11/19 10:49:57;;;;;;;14.63;3.07;;;;;;;;;;10503192;28;20048;-69
2021/11/19 10:55:16;;;;;;;7.15;3.35;;;;;;;;;;10503175;28;20645;-69
2021/11/19 11:00:22;;;;;;;5.03;2.50;;;;;;;;;;10503204;28;20055;-67
2021/11/19 11:05:30;;;;;;;10.33;2.93;;;;;;;;;;10503563;28;20028;-68
2021/11/19 11:10:37;;;;;;;6.90;2.17;;;;;;;;;;10503078;28;20044;-68
2021/11/19 11:15:47;;;;;;;5.97;2.63;;;;;;;;;;10483853;28;20465;-68
2021/11/19 11:20:53;;;;;;;5.13;1.90;;;;;;;;;;10483163;28;20059;-68
2021/11/19 11:26:19;;;;;;;4.28;2.00;;;;;;;;;;10502341;28;20021;-70
2021/11/19 11:31:20;;;;;;;6.77;2.07;;;;;;;;;;10466905;28;20446;-70
2021/11/19 11:36:31;;;;;;;5.90;2.65;;;;;;;;;;10501965;28;20051;-68
2021/11/19 11:41:41;;;;;;;7.43;2.35;;;;;;;;;;10483841;28;20056;-69
2021/11/19 11:46:48;;;;;;;14.38;1.73;;;;;;;;;;10503368;28;20347;-68
2021/11/19 11:52:06;;;;;;;3.93;2.53;;;;;;;;;;10502752;28;20051;-68
2021/11/19 11:57:12;;;;;;;21.58;3.30;;;;;;;;;;10499897;28;20411;-68
2021/11/19 12:02:22;;;;;;;3.50;1.97;;;;;;;;;;10499478;28;20099;-68
2021/11/19 12:07:26;;;;;;;2.95;2.05;;;;;;;;;;10481224;28;20087;-68
2021/11/19 12:12:26;;;;;;;2.15;1.83;;;;;;;;;;10500213;28;20027;-68
2021/11/19 12:17:32;;;;;;;12.75;3.20;;;;;;;;;;10500077;28;20032;-68
2021/11/19 12:22:33;;;;;;;2.50;2.20;;;;;;;;;;10499014;28;20029;-68
2021/11/19 12:27:36;;;;;;;12.82;2.40;;;;;;;;;;10499097;28;20012;-68
2021/11/19 12:32:40;;;;;;;2.83;2.55;;;;;;;;;;10481474;28;20040;-68
2021/11/19 12:37:59;;;;;;;1.70;1.60;;;;;;;;;;10481363;28;20020;-68
2021/11/19 12:43:06;;;;;;;5.10;1.75;;;;;;;;;;10500383;28;20063;-68
2021/11/19 12:48:06;;;;;;;8.02;2.08;;;;;;;;;;10482460;28;20025;-68
2021/11/19 12:53:25;;;;;;;4.30;2.63;;;;;;;;;;10500876;28;20446;-68
2021/11/19 12:58:25;;;;;;;9.25;2.10;;;;;;;;;;10497942;28;20028;-67
2021/11/19 13:03:32;;;;;;;4.00;2.47;;;;;;;;;;10481056;28;20020;-68
2021/11/19 13:08:39;;;;;;;5.20;1.92;;;;;;;;;;10497556;28;20054;-68
2021/11/19 13:13:40;;;;;;;5.88;2.38;;;;;;;;;;10498213;28;20033;-69
2021/11/19 13:18:43;;;;;;;10.68;3.13;;;;;;;;;;10497493;28;20051;-67
2021/11/19 13:23:52;;;;;;;11.15;2.63;;;;;;;;;;10498867;28;20021;-68
2021/11/19 13:28:53;;;;;;;10.35;2.85;;;;;;;;;;10479588;28;20403;-68
2021/11/19 13:34:06;;;;;;;2.00;1.90;;;;;;;;;;10497391;28;20029;-68
2021/11/19 13:39:13;;;;;;;6.68;2.00;;;;;;;;;;10497306;28;20412;-68
2021/11/19 13:44:37;;;;;;;12.75;3.17;;;;;;;;;;10470731;28;20029;-68
2021/11/19 13:49:40;;;;;;;10.75;3.20;;;;;;;;;;10505873;28;20028;-68
2021/11/19 13:54:41;;;;;;;6.88;2.90;;;;;;;;;;10505527;28;20021;-68
2021/11/19 13:59:52;;;;;;;10.43;2.90;;;;;;;;;;10488328;28;20085;-68
2021/11/19 14:04:54;;;;;;;2.78;2.35;;;;;;;;;;10488430;28;20111;-69
2021/11/19 14:09:54;;;;;;;3.05;2.38;;;;;;;;;;10505933;28;20052;-68
2021/11/19 14:14:55;;;;;;;6.15;3.30;;;;;;;;;;10504579;28;20473;-68
2021/11/19 14:25:32;;;;;;;10.60;2.88;;;;;;;;;;10503486;28;20025;-68
2021/11/19 14:30:36;;;;;;;3.42;2.58;;;;;;;;;;10505593;28;20029;-68
2021/11/19 14:35:39;;;;;;;5.85;3.17;;;;;;;;;;10486307;28;20451;-68
2021/11/19 14:40:39;;;;;;;4.55;2.80;;;;;;;;;;10503987;28;20025;-68
2021/11/19 14:45:41;;;;;;;8.32;2.58;;;;;;;;;;10503524;28;20123;-68
2021/11/19 14:51:05;;;;;;;6.25;2.92;;;;;;;;;;10471098;28;20024;-68
2021/11/19 14:56:11;;;;;;;5.13;2.25;;;;;;;;;;10503344;28;20028;-69
2021/11/19 15:01:13;;;;;;;6.05;2.40;;;;;;;;;;10469902;28;20030;-68
2021/11/19 15:06:13;;;;;;;11.23;3.72;;;;;;;;;;10486889;28;20016;-68
2021/11/19 15:11:17;;;;;;;3.05;2.85;;;;;;;;;;10502057;28;20077;-67
2021/11/19 15:16:36;;;;;;;7.03;2.67;;;;;;;;;;10501210;28;20464;-68
2021/11/19 15:21:38;;;;;;;7.75;2.72;;;;;;;;;;10501209;28;20033;-68
2021/11/19 15:26:40;;;;;;;5.40;3.28;;;;;;;;;;10501681;28;20032;-68
2021/11/19 15:31:50;;;;;;;8.13;3.40;;;;;;;;;;10502841;28;20052;-68
2021/11/19 15:36:50;;;;;;;4.60;3.15;;;;;;;;;;10501331;28;20490;-69
2021/11/19 15:41:50;;;;;;;4.70;3.35;;;;;;;;;;10501296;28;20034;-68
2021/11/19 15:46:51;;;;;;;15.73;4.37;;;;;;;;;;10500804;28;20020;-68
2021/11/19 15:51:56;;;;;;;8.03;4.90;;;;;;;;;;10483581;28;20262;-68
2021/11/19 15:57:15;;;;;;;15.95;5.43;;;;;;;;;;10500406;28;20833;-68
2021/11/19 16:02:25;;;;;;;8.93;3.83;;;;;;;;;;10501113;28;20044;-69
2021/11/19 16:07:35;;;;;;;7.13;4.50;;;;;;;;;;10483125;28;20164;-67
2021/11/19 16:12:39;;;;;;;10.20;4.13;;;;;;;;;;10483640;28;20024;-68
2021/11/19 16:17:39;;;;;;;11.23;5.40;;;;;;;;;;10482490;28;20583;-68
2021/11/19 16:22:39;;;;;;;7.65;5.88;;;;;;;;;;10500134;28;20115;-68
2021/11/19 16:27:40;;;;;;;13.15;5.18;;;;;;;;;;10464530;28;20047;-67
2021/11/19 16:32:40;;;;;;;13.90;5.03;;;;;;;;;;10499518;28;20031;-67
2021/11/19 16:37:40;;;;;;;7.63;6.93;;;;;;;;;;10498632;28;20165;-68
2021/11/19 16:42:40;;;;;;;20.77;7.43;;;;;;;;;;10480921;28;20477;-68
2021/11/19 16:47:40;;;;;;;7.85;6.93;;;;;;;;;;10463838;28;20017;-68
2021/11/19 16:52:43;;;;;;;9.20;6.63;;;;;;;;;;10497626;28;20033;-67
2021/11/19 16:57:45;;;;;;;18.45;7.72;;;;;;;;;;10480934;28;20112;-68
2021/11/19 17:02:45;;;;;;;12.63;7.72;;;;;;;;;;10463048;28;20024;-68
2021/11/19 17:07:48;;;;;;;8.65;7.75;;;;;;;;;;10497931;28;20113;-67
2021/11/19 17:12:48;;;;;;;34.30;15.10;;;;;;;;;;10498515;28;20434;-67
2021/11/19 17:17:48;;;;;;;26.98;8.30;;;;;;;;;;10499644;28;20043;-67
2021/11/19 17:22:49;;;;;;;16.30;6.55;;;;;;;;;;10482117;28;20024;-69
2021/11/19 17:27:49;;;;;;;20.93;7.00;;;;;;;;;;10497479;28;20029;-68
2021/11/19 17:32:49;;;;;;;19.08;5.57;;;;;;;;;;10479458;28;20824;-69
2021/11/19 17:37:50;;;;;;;12.83;6.13;;;;;;;;;;10496523;28;20037;-67
2021/11/19 17:42:51;;;;;;;10.85;6.18;;;;;;;;;;10497321;28;20324;-68
2021/11/19 17:47:51;;;;;;;8.07;4.88;;;;;;;;;;10479362;28;20446;-68
2021/11/19 17:52:51;;;;;;;6.75;4.90;;;;;;;;;;10479416;28;20074;-67
2021/11/19 17:57:51;;;;;;;16.00;5.50;;;;;;;;;;10479831;28;20454;-69
2021/11/19 18:02:52;;;;;;;10.07;4.47;;;;;;;;;;10479593;28;20058;-68
2021/11/19 18:07:52;;;;;;;8.93;7.70;;;;;;;;;;10478606;28;20489;-68
2021/11/19 18:12:52;;;;;;;22.30;14.10;;;;;;;;;;10462086;28;20039;-68
2021/11/19 18:17:53;;;;;;;15.40;7.15;;;;;;;;;;10477835;28;20037;-68
2021/11/19 18:22:54;;;;;;;14.48;11.05;;;;;;;;;;10478844;28;20472;-68
2021/11/19 18:27:54;;;;;;;27.45;24.95;;;;;;;;;;10482057;28;20032;-68
2021/11/19 18:32:54;;;;;;;22.83;20.42;;;;;;;;;;10485913;28;20377;-68
2021/11/19 18:37:59;;;;;;;10.75;9.65;;;;;;;;;;10503590;28;20029;-67
2021/11/19 18:42:59;;;;;;;13.98;8.95;;;;;;;;;;10504060;28;20453;-68
2021/11/19 18:47:59;;;;;;;12.38;11.07;;;;;;;;;;10502553;28;20029;-66
2021/11/19 18:52:59;;;;;;;12.50;8.80;;;;;;;;;;10485044;28;20108;-69
2021/11/19 18:58:00;;;;;;;14.57;8.85;;;;;;;;;;10484803;28;20365;-68
2021/11/19 19:03:01;;;;;;;12.95;6.85;;;;;;;;;;10502812;28;20412;-67
2021/11/19 19:08:02;;;;;;;6.60;3.90;;;;;;;;;;10502711;28;20105;-68
2021/11/19 19:13:03;;;;;;;10.85;4.13;;;;;;;;;;10502084;28;20028;-67
2021/11/19 19:18:03;;;;;;;6.50;5.90;;;;;;;;;;10502337;28;20089;-68
2021/11/19 19:23:04;;;;;;;12.50;3.97;;;;;;;;;;10501451;28;20348;-68
2021/11/19 19:28:09;;;;;;;41.35;20.58;;;;;;;;;;10503120;28;20104;-67
2021/11/19 19:33:09;;;;;;;11.57;5.80;;;;;;;;;;10487046;28;20028;-68
2021/11/19 19:38:15;;;;;;;5.88;2.92;;;;;;;;;;10484618;28;20390;-68
2021/11/19 19:43:16;;;;;;;3.92;3.30;;;;;;;;;;10483857;28;20449;-67
2021/11/19 19:48:17;;;;;;;6.50;3.42;;;;;;;;;;10482978;28;20472;-67
2021/11/19 19:53:18;;;;;;;5.30;3.80;;;;;;;;;;10484333;28;20115;-67
2021/11/19 19:58:21;;;;;;;6.68;3.95;;;;;;;;;;10482067;28;20123;-67
2021/11/19 20:03:21;;;;;;;3.72;3.03;;;;;;;;;;10499628;28;20107;-69
2021/11/19 20:08:22;;;;;;;5.00;3.10;;;;;;;;;;10464983;28;20147;-67
2021/11/19 20:13:22;;;;;;;5.40;3.58;;;;;;;;;;10481575;28;20029;-66
2021/11/19 20:18:22;;;;;;;10.15;4.47;;;;;;;;;;10500431;28;20078;-67
2021/11/19 20:23:23;;;;;;;4.65;3.25;;;;;;;;;;10481281;28;20119;-68
2021/11/19 20:28:26;;;;;;;3.53;3.22;;;;;;;;;;10498970;28;20103;-68
2021/11/19 20:33:39;;;;;;;4.50;4.10;;;;;;;;;;10499050;28;20111;-67
2021/11/19 20:38:40;;;;;;;5.00;3.97;;;;;;;;;;10480587;28;20077;-68
2021/11/19 20:43:40;;;;;;;6.07;4.47;;;;;;;;;;10480773;28;20171;-66
2021/11/19 20:48:41;;;;;;;8.48;5.35;;;;;;;;;;10499899;28;20115;-67
2021/11/19 20:53:42;;;;;;;5.70;4.13;;;;;;;;;;10497015;28;20024;-67
2021/11/19 20:58:42;;;;;;;4.47;4.05;;;;;;;;;;10481206;28;20382;-67
2021/11/19 21:03:43;;;;;;;3.53;3.33;;;;;;;;;;10499722;28;20028;-67
2021/11/19 21:08:44;;;;;;;7.68;3.70;;;;;;;;;;10498600;28;20105;-67
2021/11/19 21:13:44;;;;;;;7.22;3.42;;;;;;;;;;10481332;28;20016;-67
2021/11/19 21:18:45;;;;;;;6.35;3.38;;;;;;;;;;10480084;28;20362;-66
2021/11/19 21:23:45;;;;;;;4.22;2.92;;;;;;;;;;10479790;28;20081;-67
2021/11/19 21:28:46;;;;;;;8.52;3.72;;;;;;;;;;10479632;28;20104;-67
2021/11/19 21:33:46;;;;;;;5.32;4.07;;;;;;;;;;10497995;28;20039;-67
2021/11/19 21:38:47;;;;;;;12.65;4.45;;;;;;;;;;10497796;28;20047;-66
2021/11/19 21:43:48;;;;;;;4.97;3.60;;;;;;;;;;10479328;28;20024;-67
2021/11/19 21:48:48;;;;;;;9.38;3.55;;;;;;;;;;10499564;28;20025;-68
2021/11/19 21:53:50;;;;;;;8.85;4.10;;;;;;;;;;10500748;28;20024;-69
2021/11/19 21:58:52;;;;;;;2.97;2.78;;;;;;;;;;10497353;28;20024;-67
2021/11/19 22:03:56;;;;;;;6.10;3.05;;;;;;;;;;10501697;28;20405;-67
2021/11/19 22:08:56;;;;;;;18.52;9.27;;;;;;;;;;10505582;28;20066;-67
2021/11/19 22:13:57;;;;;;;12.25;5.45;;;;;;;;;;10487493;28;20465;-67
2021/11/19 22:18:58;;;;;;;5.72;4.63;;;;;;;;;;10504954;28;20133;-67
2021/11/19 22:23:59;;;;;;;8.43;4.35;;;;;;;;;;10486586;28;20094;-67
2021/11/19 22:28:59;;;;;;;7.63;5.70;;;;;;;;;;10504672;28;20516;-67
2021/11/19 22:34:01;;;;;;;5.70;4.80;;;;;;;;;;10469756;28;20028;-67
2021/11/19 22:39:15;;;;;;;5.85;5.35;;;;;;;;;;10470487;28;20040;-68
2021/11/19 22:44:16;;;;;;;8.82;4.80;;;;;;;;;;10504266;28;20454;-68
2021/11/19 22:49:16;;;;;;;9.55;5.18;;;;;;;;;;10486341;28;20036;-68
2021/11/19 22:54:17;;;;;;;15.32;5.20;;;;;;;;;;10486652;28;20492;-68
2021/11/19 22:59:17;;;;;;;6.40;5.13;;;;;;;;;;10485713;28;20032;-67
2021/11/19 23:04:18;;;;;;;7.22;4.97;;;;;;;;;;10503763;28;20109;-68
2021/11/19 23:09:21;;;;;;;4.13;3.83;;;;;;;;;;10485335;28;20059;-67
2021/11/19 23:14:22;;;;;;;10.93;4.32;;;;;;;;;;10502047;28;20050;-67
2021/11/19 23:19:23;;;;;;;7.30;4.93;;;;;;;;;;10484255;28;20082;-67
2021/11/19 23:24:25;;;;;;;7.30;4.80;;;;;;;;;;10501585;28;20052;-67
2021/11/19 23:29:26;;;;;;;5.88;5.03;;;;;;;;;;10484906;28;20024;-66
2021/11/19 23:34:30;;;;;;;5.60;5.00;;;;;;;;;;10501860;28;20457;-67
2021/11/19 23:39:31;;;;;;;9.32;5.85;;;;;;;;;;10500853;28;20131;-66
2021/11/19 23:44:33;;;;;;;9.23;4.65;;;;;;;;;;10501266;28;20116;-66
2021/11/19 23:49:33;;;;;;;8.32;5.28;;;;;;;;;;10483309;28;20050;-67
2021/11/19 23:54:37;;;;;;;11.27;5.03;;;;;;;;;;10500290;28;20154;-67
2021/11/19 23:59:39;;;;;;;9.02;6.80;;;;;;;;;;10501062;28;20028;-66
